createdAt,value
2023-02-15T00:02:02.289Z,64.93
2023-02-15T00:04:47.281Z,64.87
2023-02-15T00:07:19.094Z,64.39
2023-02-15T00:09:49.694Z,64.78
2023-02-15T00:12:17.552Z,64.97
2023-02-15T00:14:44.890Z,65.01
2023-02-15T00:17:12.005Z,64.28
2023-02-15T00:19:38.984Z,65.23
2023-02-15T00:22:05.877Z,65.76
2023-02-15T00:24:33.504Z,65.73
2023-02-15T00:27:00.347Z,65.72
2023-02-15T00:29:27.533Z,66.76
2023-02-15T00:31:54.611Z,66.87
2023-02-15T00:34:26.185Z,67.42
2023-02-15T00:36:53.346Z,67.13
2023-02-15T00:39:20.622Z,67.76
2023-02-15T00:41:48.140Z,68.14
2023-02-15T00:44:15.532Z,67.78
2023-02-15T00:46:42.490Z,67.37
2023-02-15T00:49:11.340Z,67.85
2023-02-15T00:51:38.623Z,68.25
2023-02-15T00:54:05.738Z,68.26
2023-02-15T00:56:32.716Z,68.13
2023-02-15T00:58:59.655Z,69.13
2023-02-15T01:01:27.013Z,69.33
2023-02-15T01:03:54.281Z,68.80
2023-02-15T01:06:21.342Z,68.99
2023-02-15T01:08:48.579Z,69.42
2023-02-15T01:11:50.260Z,69.45
2023-02-15T01:14:09.730Z,69.52
2023-02-15T01:16:39.041Z,69.73
2023-02-15T01:19:06.969Z,69.84
2023-02-15T01:21:35.558Z,69.93
2023-02-15T01:24:03.360Z,69.65
2023-02-15T01:26:30.450Z,70.33
2023-02-15T01:29:00.893Z,70.31
2023-02-15T01:31:27.900Z,70.55
2023-02-15T01:33:54.863Z,70.35
2023-02-15T01:36:21.746Z,70.61
2023-02-15T01:38:48.805Z,71.14
2023-02-15T01:41:21.601Z,70.85
2023-02-15T01:44:02.749Z,71.29
2023-02-15T01:46:45.608Z,71.53
2023-02-15T01:49:20.649Z,71.57
2023-02-15T01:51:53.692Z,71.59
2023-02-15T01:54:28.752Z,71.62
2023-02-15T01:57:03.645Z,71.76
2023-02-15T01:59:33.466Z,72.04
2023-02-15T02:02:03.019Z,72.64
2023-02-15T02:04:41.100Z,72.98
2023-02-15T02:07:10.582Z,73.20
2023-02-15T02:09:38.730Z,72.78
2023-02-15T02:12:06.233Z,73.80
2023-02-15T02:14:33.402Z,73.63
2023-02-15T02:17:28.534Z,74.10
2023-02-15T02:19:58.506Z,73.64
2023-02-15T02:22:50.351Z,74.26
2023-02-15T02:25:50.692Z,74.75
2023-02-15T02:28:55.049Z,74.11
2023-02-15T02:31:38.410Z,74.87
2023-02-15T02:34:23.630Z,75.00
2023-02-15T02:37:02.609Z,75.11
2023-02-15T02:39:35.492Z,75.59
2023-02-15T02:42:08.404Z,75.79
2023-02-15T02:44:45.537Z,74.91
2023-02-15T02:47:21.610Z,75.26
2023-02-15T02:49:49.581Z,75.37
2023-02-15T02:52:36.877Z,75.79
2023-02-15T02:55:08.164Z,75.54
2023-02-15T02:57:38.272Z,75.42
2023-02-15T03:00:07.336Z,76.06
2023-02-15T03:02:39.501Z,75.75
2023-02-15T03:05:13.057Z,75.76
2023-02-15T03:07:42.241Z,76.32
2023-02-15T03:10:11.040Z,76.35
2023-02-15T03:12:41.676Z,76.35
2023-02-15T03:27:53.645Z,78.44
2023-02-15T03:30:24.285Z,78.41
2023-02-15T03:32:52.778Z,78.32
2023-02-15T03:35:25.690Z,78.17
2023-02-15T03:37:57.506Z,77.82
2023-02-15T03:40:48.650Z,77.88
2023-02-15T03:43:28.837Z,77.58
2023-02-15T03:46:01.470Z,77.13
2023-02-15T03:48:37.831Z,76.58
2023-02-15T03:51:29.138Z,77.26
2023-02-15T03:53:58.382Z,77.49
2023-02-15T03:56:25.782Z,77.09
2023-02-15T03:59:11.038Z,77.48
2023-02-15T04:02:00.021Z,77.78
2023-02-15T04:04:40.044Z,77.45
2023-02-15T04:07:09.415Z,78.22
2023-02-15T04:09:55.402Z,81.18
2023-02-15T04:12:22.459Z,77.97
2023-02-15T04:15:07.782Z,78.76
2023-02-15T04:17:36.781Z,78.98
2023-02-15T04:20:22.190Z,79.43
2023-02-15T04:23:07.534Z,79.33
2023-02-15T04:25:34.360Z,78.89
2023-02-15T04:28:01.205Z,79.82
2023-02-15T04:30:28.158Z,79.75
2023-02-15T04:32:58.214Z,79.44
2023-02-15T04:35:25.505Z,79.26
2023-02-15T04:37:52.371Z,79.77
2023-02-15T04:40:19.843Z,79.15
2023-02-15T04:42:50.109Z,79.16
2023-02-15T04:45:18.211Z,79.88
2023-02-15T04:47:45.209Z,79.64
2023-02-15T04:50:12.379Z,79.10
2023-02-15T04:52:40.071Z,79.15
2023-02-15T04:55:07.561Z,79.40
2023-02-15T04:57:34.418Z,79.47
2023-02-15T05:00:01.576Z,79.16
2023-02-15T05:02:28.547Z,80.27
2023-02-15T05:04:55.473Z,79.08
2023-02-15T05:07:22.351Z,78.40
2023-02-15T05:09:49.112Z,78.73
2023-02-15T05:12:15.952Z,79.12
2023-02-15T05:14:42.879Z,77.94
2023-02-15T05:17:09.844Z,78.23
2023-02-15T05:19:36.669Z,79.38
2023-02-15T05:22:03.505Z,78.14
2023-02-15T05:24:48.889Z,77.96
2023-02-15T05:27:34.591Z,78.71
2023-02-15T05:30:01.547Z,78.96
2023-02-15T05:32:28.647Z,78.28
2023-02-15T05:34:55.546Z,78.29
2023-02-15T05:37:22.420Z,78.67
2023-02-15T05:39:49.240Z,77.03
2023-02-15T05:42:16.130Z,76.49
2023-02-15T05:44:43.170Z,76.17
2023-02-15T05:47:10.014Z,76.01
2023-02-15T05:49:37.134Z,74.81
2023-02-15T05:52:04.756Z,75.81
2023-02-15T05:54:31.895Z,74.44
2023-02-15T05:56:58.854Z,70.59
2023-02-15T05:59:25.758Z,71.12
2023-02-15T06:01:52.575Z,71.10
2023-02-15T06:04:19.499Z,67.85
2023-02-15T06:06:46.405Z,64.03
2023-02-15T06:09:14.297Z,62.01
2023-02-15T06:11:41.486Z,60.32
2023-02-15T06:14:08.308Z,66.53
2023-02-15T06:16:35.076Z,69.27
2023-02-15T06:19:02.875Z,68.72
2023-02-15T06:21:31.344Z,66.12
2023-02-15T06:23:58.588Z,65.53
2023-02-15T06:26:25.552Z,62.43
2023-02-15T06:28:52.448Z,59.16
2023-02-15T06:31:19.481Z,54.76
2023-02-15T06:33:46.420Z,53.63
2023-02-15T06:36:13.754Z,49.11
2023-02-15T06:38:40.699Z,50.32
2023-02-15T06:41:07.620Z,52.61
2023-02-15T06:43:35.337Z,57.25
2023-02-15T06:46:02.510Z,52.50
2023-02-15T06:48:29.510Z,50.75
2023-02-15T06:50:56.378Z,44.90
2023-02-15T06:53:23.323Z,42.44
2023-02-15T06:55:50.316Z,41.31
2023-02-15T06:58:17.455Z,40.75
2023-02-15T07:00:44.274Z,40.83
2023-02-15T07:03:15.365Z,40.26
2023-02-15T07:05:42.227Z,36.68
2023-02-15T07:08:09.117Z,38.38
2023-02-15T07:10:35.990Z,38.27
2023-02-15T07:13:02.849Z,38.52
2023-02-15T07:15:30.681Z,36.27
2023-02-15T07:17:59.677Z,36.02
2023-02-15T07:20:26.776Z,35.34
2023-02-15T07:22:53.630Z,40.07
2023-02-15T07:25:20.726Z,41.05
2023-02-15T07:27:47.923Z,44.96
2023-02-15T07:30:17.082Z,45.56
2023-02-15T07:33:05.071Z,47.36
2023-02-15T07:35:33.143Z,54.90
2023-02-15T07:38:00.034Z,52.62
2023-02-15T07:40:27.197Z,49.30
2023-02-15T07:42:55.708Z,53.20
2023-02-15T07:45:22.940Z,51.15
2023-02-15T07:47:50.056Z,44.83
2023-02-15T07:50:17.062Z,40.96
2023-02-15T07:52:44.013Z,39.76
2023-02-15T07:55:13.822Z,41.86
2023-02-15T07:57:48.241Z,41.64
2023-02-15T08:00:16.425Z,39.41
2023-02-15T08:02:48.329Z,36.92
2023-02-15T08:05:15.344Z,35.64
2023-02-15T08:07:42.195Z,37.36
2023-02-15T08:10:09.296Z,35.15
2023-02-15T08:12:36.205Z,37.78
2023-02-15T08:15:04.123Z,38.34
2023-02-15T08:17:31.009Z,37.82
2023-02-15T08:19:57.871Z,40.79
2023-02-15T08:22:25.626Z,41.49
2023-02-15T08:24:52.445Z,43.62
2023-02-15T08:27:19.330Z,51.69
2023-02-15T08:29:46.204Z,47.03
2023-02-15T08:32:13.450Z,43.42
2023-02-15T08:34:42.860Z,41.14
2023-02-15T08:37:10.471Z,42.94
2023-02-15T08:39:37.905Z,42.15
2023-02-15T08:42:05.001Z,39.35
2023-02-15T08:44:31.934Z,42.91
2023-02-15T08:47:03.889Z,47.42
2023-02-15T08:49:31.025Z,45.08
2023-02-15T08:51:57.859Z,43.01
2023-02-15T08:54:24.899Z,47.64
2023-02-15T08:56:52.011Z,46.13
2023-02-15T08:59:21.748Z,44.61
2023-02-15T09:01:51.117Z,42.82
2023-02-15T09:04:18.400Z,40.68
2023-02-15T09:06:50.230Z,41.33
2023-02-15T09:09:19.166Z,41.85
2023-02-15T09:11:48.833Z,44.91
2023-02-15T09:14:18.343Z,45.60
2023-02-15T09:16:49.689Z,43.40
2023-02-15T09:19:19.006Z,43.91
2023-02-15T09:21:46.479Z,47.52
2023-02-15T09:24:15.520Z,48.34
2023-02-15T09:26:44.670Z,47.63
2023-02-15T09:29:13.400Z,47.62
2023-02-15T09:31:45.473Z,48.99
2023-02-15T09:34:18.310Z,50.33
2023-02-15T09:36:45.922Z,49.77
2023-02-15T09:39:18.604Z,48.98
2023-02-15T09:41:57.550Z,50.20
2023-02-15T09:44:27.327Z,50.49
2023-02-15T09:47:19.218Z,48.62
2023-02-15T09:50:04.521Z,44.25
2023-02-15T09:53:28.719Z,42.03
2023-02-15T09:56:07.493Z,42.96
2023-02-15T09:58:49.495Z,46.22
2023-02-15T10:01:29.841Z,48.25
2023-02-15T10:04:21.645Z,45.69
2023-02-15T10:07:23.243Z,45.39
2023-02-15T10:09:55.846Z,43.66
2023-02-15T10:12:37.539Z,41.84
2023-02-15T10:15:25.422Z,44.59
2023-02-15T10:18:30.720Z,44.73
2023-02-15T10:21:40.415Z,40.84
2023-02-15T10:24:32.068Z,44.56
2023-02-15T10:27:09.014Z,46.75
2023-02-15T10:29:43.426Z,44.52
2023-02-15T10:32:16.668Z,43.85
2023-02-15T10:34:58.351Z,43.51
2023-02-15T10:37:54.672Z,41.29
2023-02-15T10:40:21.612Z,38.17
2023-02-15T10:42:51.367Z,40.13
2023-02-15T10:45:42.977Z,40.18
2023-02-15T10:48:27.919Z,37.55
2023-02-15T10:51:04.361Z,34.80
2023-02-15T10:53:53.118Z,37.29
2023-02-15T10:56:41.248Z,38.81
2023-02-15T10:59:16.547Z,37.59
2023-02-15T11:01:57.264Z,39.33
2023-02-15T11:04:52.375Z,37.59
2023-02-15T11:07:34.843Z,35.20
2023-02-15T11:10:01.707Z,36.14
2023-02-15T11:12:31.965Z,36.09
2023-02-15T11:15:05.577Z,36.19
2023-02-15T11:17:40.751Z,39.81
2023-02-15T11:20:26.790Z,39.61
2023-02-15T11:22:54.529Z,37.76
2023-02-15T11:25:26.961Z,34.75
2023-02-15T11:27:55.617Z,32.04
2023-02-15T11:30:25.071Z,31.32
2023-02-15T11:32:57.231Z,29.26
2023-02-15T11:35:33.518Z,33.80
2023-02-15T11:38:24.506Z,32.08
2023-02-15T11:40:58.578Z,34.57
2023-02-15T11:43:35.810Z,37.86
2023-02-15T11:46:02.845Z,43.41
2023-02-15T11:48:32.852Z,42.62
2023-02-15T11:51:01.213Z,41.42
2023-02-15T11:53:33.094Z,39.85
2023-02-15T11:56:01.515Z,40.61
2023-02-15T11:58:55.784Z,41.61
2023-02-15T12:01:37.924Z,45.26
2023-02-15T12:04:10.506Z,45.60
2023-02-15T12:06:45.402Z,45.63
2023-02-15T12:09:46.930Z,46.36
2023-02-15T12:12:27.379Z,43.46
2023-02-15T12:14:56.612Z,38.42
2023-02-15T12:17:27.030Z,38.88
2023-02-15T12:19:57.707Z,40.52
2023-02-15T12:22:31.442Z,37.34
2023-02-15T12:25:04.909Z,39.99
2023-02-15T12:27:35.951Z,41.85
2023-02-15T12:30:16.160Z,41.96
2023-02-15T12:32:57.567Z,42.22
2023-02-15T12:35:33.709Z,42.16
2023-02-15T12:38:25.419Z,41.88
2023-02-15T12:41:00.452Z,42.96
2023-02-15T12:43:32.451Z,43.55
2023-02-15T12:46:37.918Z,43.42
2023-02-15T12:49:20.454Z,44.74
2023-02-15T12:52:21.241Z,43.67
2023-02-15T12:54:49.279Z,44.34
2023-02-15T12:57:24.399Z,45.13
2023-02-15T12:59:58.034Z,46.01
2023-02-15T13:02:44.024Z,46.26
2023-02-15T13:05:10.800Z,46.40
2023-02-15T13:07:38.233Z,46.74
2023-02-15T13:10:05.872Z,47.41
2023-02-15T13:12:33.166Z,48.78
2023-02-15T13:15:02.703Z,48.73
2023-02-15T13:17:35.572Z,47.99
2023-02-15T13:20:08.669Z,47.87
2023-02-15T13:22:44.770Z,47.52
2023-02-15T13:25:24.286Z,48.77
2023-02-15T13:27:57.913Z,49.16
2023-02-15T13:30:36.500Z,48.58
2023-02-15T13:33:07.128Z,47.95
2023-02-15T13:35:44.759Z,47.92
2023-02-15T13:38:19.137Z,48.26
2023-02-15T13:40:55.243Z,49.62
2023-02-15T13:43:40.611Z,49.13
2023-02-15T13:46:07.505Z,49.14
2023-02-15T13:49:00.495Z,49.03
2023-02-15T13:51:45.557Z,48.97
2023-02-15T13:54:40.042Z,49.91
2023-02-15T13:57:09.994Z,50.25
2023-02-15T13:59:46.229Z,49.95
2023-02-15T14:02:13.024Z,49.96
2023-02-15T14:05:11.157Z,49.70
2023-02-15T14:08:04.053Z,50.04
2023-02-15T14:10:42.960Z,51.38
2023-02-15T14:13:54.405Z,51.26
2023-02-15T14:17:05.742Z,50.67
2023-02-15T14:19:39.191Z,50.94
2023-02-15T14:22:24.282Z,51.18
2023-02-15T14:25:29.884Z,52.31
2023-02-15T14:27:59.957Z,52.39
2023-02-15T14:30:49.718Z,51.32
2023-02-15T14:33:33.232Z,51.57
2023-02-15T14:36:03.977Z,50.98
2023-02-15T14:38:58.692Z,50.71
2023-02-15T14:41:54.523Z,50.68
2023-02-15T14:44:38.851Z,50.20
2023-02-15T14:47:37.836Z,49.54
2023-02-15T14:50:38.474Z,48.24
2023-02-15T14:53:32.049Z,47.77
2023-02-15T14:56:19.282Z,48.11
2023-02-15T14:58:55.073Z,47.19
2023-02-15T15:01:31.980Z,47.62
2023-02-15T15:04:22.762Z,46.74
2023-02-15T15:07:04.921Z,45.85
2023-02-15T15:09:34.778Z,46.26
2023-02-15T15:12:28.368Z,46.71
2023-02-15T15:29:54.419Z,48.59
2023-02-15T15:32:30.166Z,48.83
2023-02-15T15:35:26.237Z,48.75
2023-02-15T15:38:02.077Z,48.59
2023-02-15T15:40:43.186Z,48.64
2023-02-15T15:43:35.031Z,49.20
2023-02-15T15:46:23.073Z,48.32
2023-02-15T15:48:49.981Z,48.17
2023-02-15T15:51:28.354Z,48.87
2023-02-15T15:53:56.244Z,49.52
2023-02-15T15:56:32.374Z,49.12
2023-02-15T15:59:03.284Z,49.20
2023-02-15T16:01:32.531Z,49.16
2023-02-15T16:04:00.358Z,49.32
2023-02-15T16:06:34.185Z,50.42
2023-02-15T16:09:16.750Z,50.54
2023-02-15T16:11:44.363Z,50.36
2023-02-15T16:14:18.408Z,51.79
2023-02-15T16:16:52.298Z,52.33
2023-02-15T16:19:27.018Z,53.21
2023-02-15T16:21:55.336Z,53.10
2023-02-15T16:24:31.746Z,53.58
2023-02-15T16:27:19.712Z,54.96
2023-02-15T16:29:46.852Z,54.29
2023-02-15T16:32:24.318Z,54.63
2023-02-15T16:35:03.181Z,54.19
2023-02-15T16:37:37.668Z,54.97
2023-02-15T16:40:04.613Z,55.97
2023-02-15T16:42:31.468Z,56.47
2023-02-15T16:45:04.288Z,56.54
2023-02-15T16:47:35.105Z,57.28
2023-02-15T16:50:05.582Z,59.63
2023-02-15T16:52:32.954Z,59.47
2023-02-15T16:55:07.520Z,59.84
2023-02-15T16:57:38.422Z,60.16
2023-02-15T17:00:08.841Z,61.10
2023-02-15T17:02:56.523Z,61.52
2023-02-15T17:05:23.713Z,61.36
2023-02-15T17:08:07.961Z,61.46
2023-02-15T17:10:37.884Z,61.14
2023-02-15T17:13:12.770Z,61.79
2023-02-15T17:15:59.438Z,62.43
2023-02-15T17:18:44.467Z,63.19
2023-02-15T17:21:14.975Z,63.66
2023-02-15T17:23:45.991Z,63.76
2023-02-15T17:26:20.699Z,64.48
2023-02-15T17:29:02.438Z,64.97
2023-02-15T17:31:34.346Z,65.31
2023-02-15T17:34:02.714Z,64.71
2023-02-15T17:36:31.553Z,65.21
2023-02-15T17:38:58.485Z,65.50
2023-02-15T17:41:35.213Z,65.77
2023-02-15T17:44:04.083Z,65.09
2023-02-15T17:46:35.946Z,64.56
2023-02-15T17:49:03.601Z,64.71
2023-02-15T17:51:32.241Z,65.08
2023-02-15T17:54:17.753Z,65.78
2023-02-15T17:56:44.666Z,65.52
2023-02-15T17:59:12.614Z,65.90
2023-02-15T18:02:04.609Z,66.45
2023-02-15T18:04:55.698Z,66.58
2023-02-15T18:07:41.141Z,66.82
2023-02-15T18:10:37.990Z,66.89
2023-02-15T18:13:05.146Z,67.01
2023-02-15T18:15:32.224Z,67.17
2023-02-15T18:17:59.217Z,67.08
2023-02-15T18:20:30.882Z,66.29
2023-02-15T18:22:57.770Z,66.29
2023-02-15T18:25:25.773Z,66.89
2023-02-15T18:27:54.905Z,66.99
2023-02-15T18:30:24.567Z,66.96
2023-02-15T18:32:54.102Z,66.78
2023-02-15T18:35:24.734Z,67.35
2023-02-15T18:37:53.535Z,67.59
2023-02-15T18:40:23.126Z,67.65
2023-02-15T18:42:50.053Z,67.38
2023-02-15T18:45:28.769Z,67.62
2023-02-15T18:47:55.760Z,67.23
2023-02-15T18:50:24.158Z,66.76
2023-02-15T18:52:51.664Z,66.84
2023-02-15T18:55:21.265Z,66.73
2023-02-15T18:57:51.150Z,65.76
2023-02-15T19:00:19.555Z,66.09
2023-02-15T19:02:46.931Z,66.91
2023-02-15T19:05:15.025Z,67.18
2023-02-15T19:07:43.690Z,66.75
2023-02-15T19:10:16.795Z,67.70
2023-02-15T19:12:44.332Z,68.40
2023-02-15T19:15:19.357Z,67.64
2023-02-15T19:17:46.877Z,66.75
2023-02-15T19:20:19.648Z,67.32
2023-02-15T19:22:51.964Z,68.16
2023-02-15T19:25:30.362Z,67.58
2023-02-15T19:27:58.413Z,67.14
2023-02-15T19:30:30.810Z,68.62
2023-02-15T19:32:59.016Z,69.62
2023-02-15T19:35:30.476Z,68.83
2023-02-15T19:37:59.696Z,69.56
2023-02-15T19:40:29.719Z,70.06
2023-02-15T19:42:57.452Z,71.03
2023-02-15T19:45:27.613Z,70.54
2023-02-15T19:47:55.308Z,70.82
2023-02-15T19:50:28.384Z,71.46
2023-02-15T19:52:57.543Z,71.05
2023-02-15T19:55:25.721Z,70.70
2023-02-15T19:57:54.226Z,71.88
2023-02-15T20:00:24.313Z,72.00
2023-02-15T20:02:51.787Z,72.29
2023-02-15T20:05:19.664Z,70.89
2023-02-15T20:07:52.097Z,71.52
2023-02-15T20:10:23.234Z,73.41
2023-02-15T20:12:50.741Z,71.20
2023-02-15T20:15:28.701Z,75.74
2023-02-15T20:17:57.304Z,71.49
2023-02-15T20:20:30.387Z,70.83
2023-02-15T20:22:57.509Z,70.29
2023-02-15T20:25:27.944Z,69.18
2023-02-15T20:27:55.804Z,69.62
2023-02-15T20:30:25.327Z,69.50
2023-02-15T20:32:52.289Z,67.97
2023-02-15T20:35:24.489Z,69.50
2023-02-15T20:37:56.355Z,69.08
2023-02-15T20:40:26.875Z,69.40
2023-02-15T20:42:53.766Z,69.58
2023-02-15T20:45:26.610Z,70.37
2023-02-15T20:47:54.050Z,71.59
2023-02-15T20:50:26.492Z,69.83
2023-02-15T20:52:55.968Z,69.19
2023-02-15T20:55:25.827Z,70.06
2023-02-15T20:57:53.044Z,70.11
2023-02-15T21:00:29.422Z,70.13
2023-02-15T21:02:58.926Z,70.99
2023-02-15T21:05:32.846Z,71.30
2023-02-15T21:08:00.416Z,71.72
2023-02-15T21:10:30.130Z,71.33
2023-02-15T21:12:59.900Z,72.23
2023-02-15T21:15:35.897Z,73.49
2023-02-15T21:18:05.773Z,73.66
2023-02-15T21:20:35.369Z,75.07
2023-02-15T21:23:05.105Z,75.10
2023-02-15T21:25:36.760Z,75.95
2023-02-15T21:28:05.640Z,75.26
2023-02-15T21:30:32.545Z,75.62
2023-02-15T21:32:59.408Z,77.25
2023-02-15T21:35:28.357Z,76.52
2023-02-15T21:37:56.401Z,75.91
2023-02-15T21:40:29.439Z,76.60
2023-02-15T21:43:16.504Z,77.70
2023-02-15T21:45:58.504Z,75.54
2023-02-15T21:48:25.577Z,76.08
2023-02-15T21:51:11.372Z,77.86
2023-02-15T21:53:45.957Z,76.42
2023-02-15T21:56:14.584Z,75.17
2023-02-15T21:58:41.434Z,75.31
2023-02-15T22:01:20.567Z,76.47
2023-02-15T22:03:47.730Z,75.50
2023-02-15T22:06:14.644Z,74.64
2023-02-15T22:08:41.596Z,75.06
2023-02-15T22:11:13.904Z,74.76
2023-02-15T22:13:42.089Z,74.44
2023-02-15T22:16:22.013Z,73.86
2023-02-15T22:18:49.277Z,74.87
2023-02-15T22:21:19.595Z,74.37
2023-02-15T22:23:47.308Z,73.43
2023-02-15T22:26:25.096Z,73.19
2023-02-15T22:28:52.196Z,73.51
2023-02-15T22:31:21.461Z,73.61
2023-02-15T22:33:49.899Z,72.55
2023-02-15T22:36:30.940Z,73.06
2023-02-15T22:38:57.976Z,73.46
2023-02-15T22:41:29.127Z,72.57
2023-02-15T22:43:57.114Z,72.54
2023-02-15T22:46:25.348Z,72.70
2023-02-15T22:48:52.559Z,72.30
2023-02-15T22:51:23.572Z,71.71
2023-02-15T22:53:52.383Z,73.02
2023-02-15T22:56:26.743Z,73.04
2023-02-15T22:58:57.944Z,72.45
2023-02-15T23:01:31.808Z,72.74
2023-02-15T23:04:01.191Z,72.48
2023-02-15T23:06:29.715Z,72.79
2023-02-15T23:08:57.195Z,72.07
2023-02-15T23:11:24.099Z,72.63
2023-02-15T23:13:51.669Z,72.77
2023-02-15T23:16:18.954Z,73.15
2023-02-15T23:18:47.338Z,72.95
2023-02-15T23:21:32.947Z,73.08
2023-02-15T23:24:15.883Z,72.53
2023-02-15T23:26:42.711Z,72.52
2023-02-15T23:29:14.992Z,72.88
2023-02-15T23:31:44.204Z,72.31
2023-02-15T23:34:17.688Z,71.88
2023-02-15T23:36:45.154Z,72.75
2023-02-15T23:39:36.619Z,72.48
2023-02-15T23:42:26.290Z,72.44
2023-02-15T23:44:53.110Z,71.45
2023-02-15T23:47:44.001Z,71.07
2023-02-15T23:50:20.609Z,71.16
2023-02-15T23:52:48.013Z,70.11
2023-02-15T23:55:15.872Z,70.69
2023-02-15T23:57:44.123Z,71.50
